createdAt,value
2018-12-21T00:01:54.470Z,99682.02
2018-12-21T00:04:25.692Z,99681.61
2018-12-21T00:06:56.549Z,99686.17
2018-12-21T00:09:27.945Z,99690.31
2018-12-21T00:11:59.260Z,99693.22
2018-12-21T00:14:31.614Z,99694.51
2018-12-21T00:17:02.756Z,99687.46
2018-12-21T00:19:33.562Z,99683.00
2018-12-21T00:22:04.533Z,99684.14
2018-12-21T00:24:35.470Z,99686.27
2018-12-21T00:27:06.961Z,99685.41
2018-12-21T00:29:37.866Z,99685.89
2018-12-21T00:32:13.623Z,99683.42
2018-12-21T00:34:49.415Z,99689.88
2018-12-21T00:37:25.165Z,99700.30
2018-12-21T00:40:01.224Z,99701.36
2018-12-21T00:43:07.803Z,99690.81
2018-12-21T00:45:44.864Z,99703.70
2018-12-21T00:48:15.687Z,99709.52
2018-12-21T00:50:46.370Z,99714.20
2018-12-21T00:53:17.610Z,99713.30
2018-12-21T00:55:48.890Z,99721.66
2018-12-21T00:58:19.990Z,99730.84
2018-12-21T01:00:50.886Z,99738.91
2018-12-21T01:03:22.111Z,99738.00
2018-12-21T01:05:53.181Z,99731.27
2018-12-21T01:08:24.282Z,99742.54
2018-12-21T01:10:55.497Z,99745.25
2018-12-21T01:13:26.541Z,99751.70
2018-12-21T01:15:57.454Z,99761.30
2018-12-21T01:18:28.998Z,99765.30
2018-12-21T01:20:59.836Z,99766.77
2018-12-21T01:23:30.632Z,99767.54
2018-12-21T01:26:01.454Z,99784.42
2018-12-21T01:28:33.178Z,99767.38
2018-12-21T01:31:04.103Z,99765.05
2018-12-21T01:33:35.007Z,99777.59
2018-12-21T01:36:05.999Z,99768.44
2018-12-21T01:38:37.486Z,99783.09
2018-12-21T01:41:09.080Z,99782.78
2018-12-21T01:43:40.021Z,99768.12
2018-12-21T01:46:11.181Z,99774.27
2018-12-21T01:48:42.137Z,99775.20
2018-12-21T01:51:12.905Z,99784.75
2018-12-21T01:53:44.087Z,99791.12
2018-12-21T01:56:14.983Z,99789.67
2018-12-21T01:58:45.999Z,99791.19
2018-12-21T02:01:16.732Z,99787.72
2018-12-21T02:03:47.731Z,99785.05
2018-12-21T02:06:18.596Z,99792.28
2018-12-21T02:08:49.900Z,99791.89
2018-12-21T02:11:20.698Z,99775.96
2018-12-21T02:13:51.660Z,99778.54
2018-12-21T02:16:22.819Z,99775.56
2018-12-21T02:18:53.679Z,99780.37
2018-12-21T02:21:24.518Z,99786.08
2018-12-21T02:23:55.477Z,99792.17
2018-12-21T02:26:26.377Z,99786.51
2018-12-21T02:28:57.350Z,99788.08
2018-12-21T02:31:28.180Z,99793.77
2018-12-21T02:33:59.040Z,99794.59
2018-12-21T02:36:29.822Z,99784.33
2018-12-21T02:39:00.716Z,99781.83
2018-12-21T02:41:31.511Z,99775.03
2018-12-21T02:44:02.042Z,99779.25
2018-12-21T02:46:32.667Z,99787.80
2018-12-21T02:49:03.589Z,99789.95
2018-12-21T02:51:34.500Z,99799.50
2018-12-21T02:54:05.516Z,99797.78
2018-12-21T02:56:36.257Z,99774.26
2018-12-21T02:59:07.556Z,99782.63
2018-12-21T03:01:38.258Z,99777.84
2018-12-21T03:04:09.066Z,99778.88
2018-12-21T03:06:39.950Z,99772.11
2018-12-21T03:09:12.373Z,99762.44
2018-12-21T03:11:43.378Z,99769.72
2018-12-21T03:14:14.285Z,99766.87
2018-12-21T03:16:45.154Z,99767.94
2018-12-21T03:19:15.953Z,99769.55
2018-12-21T03:21:46.821Z,99776.27
2018-12-21T03:24:17.775Z,99773.41
2018-12-21T03:26:48.630Z,99773.45
2018-12-21T03:29:20.842Z,99770.13
2018-12-21T03:31:51.791Z,99766.04
2018-12-21T03:34:23.652Z,99776.10
2018-12-21T03:36:55.162Z,99776.70
2018-12-21T03:39:25.896Z,99774.19
2018-12-21T03:41:56.481Z,99782.48
2018-12-21T03:44:28.097Z,99777.86
2018-12-21T03:46:58.821Z,99773.12
2018-12-21T03:49:30.585Z,99767.30
2018-12-21T03:52:01.651Z,99753.31
2018-12-21T03:54:32.609Z,99761.39
2018-12-21T03:57:03.368Z,99769.93
2018-12-21T03:59:34.310Z,99766.14
2018-12-21T04:02:05.375Z,99758.17
2018-12-21T04:04:36.587Z,99761.77
2018-12-21T04:07:07.441Z,99769.09
2018-12-21T04:09:38.364Z,99777.73
2018-12-21T04:12:09.414Z,99787.68
2018-12-21T04:14:40.251Z,99791.45
2018-12-21T04:17:10.984Z,99792.78
2018-12-21T04:19:41.915Z,99792.83
2018-12-21T04:22:12.760Z,99793.31
2018-12-21T04:24:43.599Z,99800.52
2018-12-21T04:27:14.371Z,99804.89
2018-12-21T04:29:45.378Z,99796.41
2018-12-21T04:32:15.921Z,99804.58
2018-12-21T04:34:47.235Z,99812.43
2018-12-21T04:37:18.300Z,99822.86
2018-12-21T04:39:49.087Z,99821.63
2018-12-21T04:42:19.945Z,99822.47
2018-12-21T04:44:50.906Z,99822.56
2018-12-21T04:47:22.078Z,99823.32
2018-12-21T04:49:52.815Z,99828.91
2018-12-21T04:52:23.761Z,99837.05
2018-12-21T04:54:54.792Z,99840.48
2018-12-21T04:57:25.698Z,99838.50
2018-12-21T04:59:56.554Z,99847.08
2018-12-21T05:02:27.377Z,99845.28
2018-12-21T05:04:58.197Z,99840.90
2018-12-21T05:07:29.983Z,99846.50
2018-12-21T05:10:00.776Z,99847.79
2018-12-21T05:12:31.527Z,99843.32
2018-12-21T05:15:02.260Z,99836.07
2018-12-21T05:17:33.067Z,99835.14
2018-12-21T05:20:03.744Z,99842.72
2018-12-21T05:22:34.568Z,99846.23
2018-12-21T05:25:05.619Z,99850.13
2018-12-21T05:27:36.562Z,99853.71
2018-12-21T05:30:08.742Z,99844.13
2018-12-21T05:32:39.802Z,99840.80
2018-12-21T05:35:10.673Z,99853.68
2018-12-21T05:37:41.424Z,99856.59
2018-12-21T05:40:12.560Z,99855.39
2018-12-21T05:42:43.318Z,99854.31
2018-12-21T05:45:14.410Z,99854.02
2018-12-21T05:47:45.502Z,99856.80
2018-12-21T05:50:16.365Z,99858.13
2018-12-21T05:52:47.388Z,99855.98
2018-12-21T05:55:18.177Z,99853.47
2018-12-21T05:57:49.064Z,99862.97
2018-12-21T06:00:19.895Z,99857.86
2018-12-21T06:02:50.704Z,99866.88
2018-12-21T06:05:21.936Z,99875.45
2018-12-21T06:07:53.841Z,99868.45
2018-12-21T06:10:24.634Z,99876.45
2018-12-21T06:12:56.566Z,99871.16
2018-12-21T06:15:27.485Z,99877.07
2018-12-21T06:17:58.849Z,99876.85
2018-12-21T06:20:29.796Z,99876.67
2018-12-21T06:23:09.234Z,99871.34
2018-12-21T06:25:33.690Z,99873.33
2018-12-21T06:28:05.290Z,99882.06
2018-12-21T06:30:36.202Z,99884.54
2018-12-21T06:33:07.342Z,99883.88
2018-12-21T06:35:38.345Z,99882.33
2018-12-21T06:38:09.642Z,99869.77
2018-12-21T06:40:40.734Z,99871.97
2018-12-21T06:43:11.622Z,99886.29
2018-12-21T06:45:42.954Z,99891.70
2018-12-21T06:48:13.910Z,99894.83
2018-12-21T06:50:45.852Z,99896.31
2018-12-21T06:53:18.066Z,99907.37
2018-12-21T06:55:52.410Z,99908.23
2018-12-21T06:58:23.642Z,99916.31
2018-12-21T07:00:54.750Z,99909.16
2018-12-21T07:03:25.724Z,99917.19
2018-12-21T07:05:57.862Z,99901.50
2018-12-21T07:08:28.781Z,99915.97
2018-12-21T07:10:59.740Z,99917.45
2018-12-21T07:13:31.148Z,99919.70
2018-12-21T07:16:02.431Z,99933.23
2018-12-21T07:18:33.809Z,99929.98
2018-12-21T07:21:04.512Z,99925.48
2018-12-21T07:23:36.650Z,99935.67
2018-12-21T07:26:07.575Z,99943.30
2018-12-21T07:28:38.592Z,99936.28
2018-12-21T07:31:09.486Z,99941.24
2018-12-21T07:33:40.699Z,99953.31
2018-12-21T07:36:12.408Z,99960.61
2018-12-21T07:38:44.107Z,99958.04
2018-12-21T07:41:15.404Z,99960.72
2018-12-21T07:43:46.478Z,99968.23
2018-12-21T07:46:17.845Z,99986.99
2018-12-21T07:48:48.717Z,99978.98
2018-12-21T07:51:20.210Z,99981.02
2018-12-21T07:53:51.570Z,99977.45
2018-12-21T07:56:22.501Z,99990.23
2018-12-21T07:58:57.422Z,99989.80
2018-12-21T08:01:26.977Z,99977.56
2018-12-21T08:03:58.332Z,99969.66
2018-12-21T08:06:29.232Z,99974.81
2018-12-21T08:09:00.153Z,99986.89
2018-12-21T08:11:31.190Z,99991.16
2018-12-21T08:14:02.177Z,99985.30
2018-12-21T08:16:33.097Z,99984.01
2018-12-21T08:19:03.991Z,99981.16
2018-12-21T08:21:35.429Z,99986.79
2018-12-21T08:24:06.379Z,99972.30
2018-12-21T08:26:37.800Z,99988.47
2018-12-21T08:29:08.973Z,99996.31
2018-12-21T08:31:40.413Z,99997.38
2018-12-21T08:34:11.511Z,100005.82
2018-12-21T08:36:42.382Z,100029.52
2018-12-21T08:39:13.634Z,100030.13
2018-12-21T08:41:45.128Z,100035.05
2018-12-21T08:44:16.375Z,100029.94
2018-12-21T08:46:47.157Z,100034.80
2018-12-21T08:49:18.530Z,100039.73
2018-12-21T08:51:49.612Z,100037.70
2018-12-21T08:54:21.045Z,100033.67
2018-12-21T08:56:52.620Z,100034.62
2018-12-21T08:59:24.274Z,100033.07
2018-12-21T09:01:55.179Z,100022.22
2018-12-21T09:04:32.125Z,100027.89
2018-12-21T09:06:59.582Z,100035.77
2018-12-21T09:09:30.605Z,100034.67
2018-12-21T09:12:01.807Z,100037.95
2018-12-21T09:14:32.823Z,100038.22
2018-12-21T09:17:04.879Z,100038.61
2018-12-21T09:19:36.214Z,100036.69
2018-12-21T09:22:08.427Z,100038.64
2018-12-21T09:24:40.083Z,100040.98
2018-12-21T09:27:11.398Z,100037.23
2018-12-21T09:29:42.439Z,100042.38
2018-12-21T09:32:13.951Z,100051.58
2018-12-21T09:34:45.150Z,100036.36
2018-12-21T09:37:16.725Z,100033.82
2018-12-21T09:39:47.967Z,100034.89
2018-12-21T09:42:19.021Z,100027.55
2018-12-21T09:44:52.624Z,100019.33
2018-12-21T09:47:24.244Z,100018.20
2018-12-21T09:49:55.241Z,100016.48
2018-12-21T09:52:26.275Z,100012.81
2018-12-21T09:54:57.351Z,100010.77
2018-12-21T09:57:28.651Z,100009.47
2018-12-21T09:59:59.745Z,100007.64
2018-12-21T10:02:35.741Z,100008.06
2018-12-21T10:05:03.725Z,100006.58
2018-12-21T10:07:34.428Z,100012.22
2018-12-21T10:10:06.109Z,100009.34
2018-12-21T10:12:37.571Z,100001.98
2018-12-21T10:15:10.645Z,100001.72
2018-12-21T10:17:42.771Z,99996.66
2018-12-21T10:20:15.092Z,99992.16
2018-12-21T10:22:46.313Z,99995.30
2018-12-21T10:25:17.586Z,99993.75
2018-12-21T10:27:48.848Z,99982.80
2018-12-21T10:30:20.063Z,99983.30
2018-12-21T10:32:51.969Z,99977.36
2018-12-21T10:35:23.072Z,99980.84
2018-12-21T10:37:54.716Z,99974.15
2018-12-21T10:40:25.589Z,99959.27
2018-12-21T10:42:56.672Z,99966.59
2018-12-21T10:45:27.685Z,99950.80
2018-12-21T10:48:00.099Z,99952.63
2018-12-21T10:50:31.014Z,99946.38
2018-12-21T10:53:02.588Z,99939.25
2018-12-21T10:55:33.889Z,99938.42
2018-12-21T10:58:04.871Z,99934.17
2018-12-21T11:00:35.912Z,99927.27
2018-12-21T11:03:07.373Z,99919.95
2018-12-21T11:05:38.524Z,99918.76
2018-12-21T11:08:10.070Z,99915.44
2018-12-21T11:10:41.379Z,99910.84
2018-12-21T11:13:12.778Z,99903.25
2018-12-21T11:15:44.709Z,99901.26
2018-12-21T11:18:15.783Z,99904.60
2018-12-21T11:20:46.789Z,99901.97
2018-12-21T11:23:17.637Z,99901.42
2018-12-21T11:25:49.140Z,99909.22
2018-12-21T11:28:25.339Z,99900.10
2018-12-21T11:30:53.053Z,99901.09
2018-12-21T11:33:23.891Z,99898.84
2018-12-21T11:35:54.578Z,99893.09
2018-12-21T11:38:26.198Z,99884.11
2018-12-21T11:40:57.058Z,99887.99
2018-12-21T11:43:28.172Z,99883.14
2018-12-21T11:45:59.087Z,99889.06
2018-12-21T11:48:30.023Z,99875.25
2018-12-21T11:51:02.559Z,99868.61
2018-12-21T11:53:34.158Z,99872.86
2018-12-21T11:56:04.987Z,99865.19
2018-12-21T11:58:36.054Z,99872.72
2018-12-21T12:01:07.418Z,99870.75
2018-12-21T12:03:39.003Z,99877.53
2018-12-21T12:06:10.073Z,99868.78
2018-12-21T12:08:41.341Z,99872.27
2018-12-21T12:11:12.685Z,99865.17
2018-12-21T12:13:43.770Z,99867.11
2018-12-21T12:16:14.793Z,99871.98
2018-12-21T12:18:46.249Z,99864.43
2018-12-21T12:21:17.490Z,99865.78
2018-12-21T12:23:49.183Z,99855.17
2018-12-21T12:26:21.756Z,99859.69
2018-12-21T12:28:52.763Z,99867.91
2018-12-21T12:31:24.868Z,99865.67
2018-12-21T12:33:55.867Z,99853.33
2018-12-21T12:36:27.972Z,99864.22
2018-12-21T12:38:59.501Z,99863.83
2018-12-21T12:41:30.453Z,99864.63
2018-12-21T12:44:01.829Z,99865.32
2018-12-21T12:46:33.151Z,99864.53
2018-12-21T12:49:04.725Z,99866.25
2018-12-21T12:51:37.389Z,99863.61
2018-12-21T12:54:08.857Z,99859.25
2018-12-21T12:56:40.026Z,99852.69
2018-12-21T12:59:11.235Z,99835.52
2018-12-21T13:01:44.193Z,99837.96
2018-12-21T13:04:17.041Z,99841.76
2018-12-21T13:06:48.065Z,99838.39
2018-12-21T13:09:18.972Z,99840.94
2018-12-21T13:11:49.816Z,99841.30
2018-12-21T13:14:20.733Z,99833.35
2018-12-21T13:16:51.729Z,99835.42
2018-12-21T13:19:24.909Z,99833.00
2018-12-21T13:21:55.993Z,99847.31
2018-12-21T13:24:27.003Z,99845.36
2018-12-21T13:26:58.095Z,99837.69
2018-12-21T13:29:28.955Z,99834.92
2018-12-21T13:32:00.093Z,99828.65
2018-12-21T13:34:31.208Z,99826.14
2018-12-21T13:37:02.765Z,99827.80
2018-12-21T13:39:33.732Z,99828.58
2018-12-21T13:42:04.810Z,99830.72
2018-12-21T13:44:36.371Z,99843.55
2018-12-21T13:47:07.329Z,99837.27
2018-12-21T13:49:40.979Z,99840.14
2018-12-21T13:52:11.847Z,99835.92
2018-12-21T13:54:43.031Z,99835.83
2018-12-21T13:57:13.968Z,99834.25
2018-12-21T13:59:44.774Z,99838.16
2018-12-21T14:02:15.651Z,99846.59
2018-12-21T14:04:46.986Z,99829.59
2018-12-21T14:07:17.766Z,99829.80
2018-12-21T14:09:49.046Z,99825.56
2018-12-21T14:12:20.221Z,99821.80
2018-12-21T14:14:51.196Z,99829.70
2018-12-21T14:17:22.585Z,99832.10
2018-12-21T14:19:53.535Z,99827.70
2018-12-21T14:22:24.932Z,99839.30
2018-12-21T14:24:56.348Z,99825.02
2018-12-21T14:27:27.685Z,99820.06
2018-12-21T14:29:58.892Z,99817.17
2018-12-21T14:32:30.414Z,99824.03
2018-12-21T14:35:01.475Z,99815.12
2018-12-21T14:37:32.720Z,99815.98
2018-12-21T14:40:03.651Z,99821.11
2018-12-21T14:42:34.754Z,99825.44
2018-12-21T14:45:06.903Z,99833.67
2018-12-21T14:47:37.806Z,99842.94
2018-12-21T14:50:12.324Z,99828.06
2018-12-21T14:52:43.289Z,99840.02
2018-12-21T14:55:14.826Z,99838.92
2018-12-21T14:57:46.055Z,99838.53
2018-12-21T15:00:17.369Z,99837.42
2018-12-21T15:02:49.808Z,99845.38
2018-12-21T15:05:21.566Z,99842.08
2018-12-21T15:07:53.490Z,99849.58
2018-12-21T15:10:26.014Z,99846.38
2018-12-21T15:12:58.825Z,99845.14
2018-12-21T15:15:30.133Z,99848.42
2018-12-21T15:18:01.773Z,99844.48
2018-12-21T15:20:33.551Z,99846.63
2018-12-21T15:23:04.991Z,99847.34
2018-12-21T15:25:36.635Z,99841.26
2018-12-21T15:28:07.984Z,99847.81
2018-12-21T15:30:39.422Z,99844.80
2018-12-21T15:33:10.364Z,99849.09
2018-12-21T15:35:41.412Z,99860.52
2018-12-21T15:38:13.312Z,99860.22
2018-12-21T15:40:48.982Z,99863.09
2018-12-21T15:43:20.447Z,99862.34
2018-12-21T15:45:51.953Z,99865.52
2018-12-21T15:48:24.599Z,99871.60
2018-12-21T15:50:57.229Z,99874.08
2018-12-21T15:53:29.094Z,99873.88
2018-12-21T15:56:01.595Z,99875.69
2018-12-21T15:58:32.939Z,99869.39
2018-12-21T16:01:05.480Z,99860.98
2018-12-21T16:03:36.449Z,99860.23
2018-12-21T16:06:08.256Z,99855.42
2018-12-21T16:08:40.747Z,99859.08
2018-12-21T16:11:12.408Z,99859.08
2018-12-21T16:13:43.456Z,99849.58
2018-12-21T16:16:15.028Z,99857.31
2018-12-21T16:18:47.160Z,99855.45
2018-12-21T16:21:18.134Z,99856.80
2018-12-21T16:23:51.830Z,99857.91
2018-12-21T16:26:22.876Z,99859.46
2018-12-21T16:28:54.050Z,99865.25
2018-12-21T16:31:25.864Z,99867.78
2018-12-21T16:33:56.964Z,99858.11
2018-12-21T16:36:28.172Z,99853.83
2018-12-21T16:38:59.876Z,99864.42
2018-12-21T16:41:30.710Z,99865.83
2018-12-21T16:44:01.737Z,99855.92
2018-12-21T16:46:33.067Z,99856.09
2018-12-21T16:49:04.258Z,99854.48
2018-12-21T16:51:36.185Z,99849.27
2018-12-21T16:54:07.387Z,99861.55
2018-12-21T16:56:38.938Z,99855.87
2018-12-21T16:59:10.347Z,99859.80
2018-12-21T17:01:41.761Z,99855.56
2018-12-21T17:04:13.092Z,99861.92
2018-12-21T17:06:44.887Z,99857.23
2018-12-21T17:09:16.211Z,99867.72
2018-12-21T17:11:47.490Z,99870.00
2018-12-21T17:14:19.222Z,99868.92
2018-12-21T17:16:50.522Z,99871.22
2018-12-21T17:19:23.945Z,99872.69
2018-12-21T17:21:55.624Z,99878.98
2018-12-21T17:24:26.935Z,99876.28
2018-12-21T17:26:58.460Z,99875.13
2018-12-21T17:29:30.052Z,99889.51
2018-12-21T17:32:01.482Z,99884.45
2018-12-21T17:34:32.724Z,99887.19
2018-12-21T17:37:03.923Z,99884.05
2018-12-21T17:39:35.191Z,99873.32
2018-12-21T17:42:06.968Z,99888.47
2018-12-21T17:44:38.070Z,99883.39
2018-12-21T17:47:08.922Z,99882.59
2018-12-21T17:49:41.448Z,99880.14
2018-12-21T17:52:12.726Z,99879.09
2018-12-21T17:54:44.112Z,99873.92
2018-12-21T17:57:23.211Z,99876.56
2018-12-21T17:59:54.529Z,99877.41
2018-12-21T18:02:25.586Z,99881.75
2018-12-21T18:04:56.937Z,99889.44
2018-12-21T18:07:27.982Z,99878.92
2018-12-21T18:09:59.080Z,99885.14
2018-12-21T18:12:30.486Z,99894.28
2018-12-21T18:15:01.939Z,99890.48
2018-12-21T18:17:34.369Z,99895.92
2018-12-21T18:20:08.869Z,99898.41
2018-12-21T18:22:40.422Z,99900.25
2018-12-21T18:25:22.193Z,99895.55
2018-12-21T18:27:56.740Z,99895.02
2018-12-21T18:30:39.842Z,99896.10
2018-12-21T18:33:13.941Z,99893.30
2018-12-21T18:35:45.814Z,99891.03
2018-12-21T18:38:20.985Z,99889.39
2018-12-21T18:40:52.027Z,99886.20
2018-12-21T18:43:23.779Z,99883.34
2018-12-21T18:45:55.108Z,99883.22
2018-12-21T18:48:26.708Z,99883.97
2018-12-21T18:50:57.983Z,99892.53
2018-12-21T18:53:28.961Z,99895.41
2018-12-21T18:55:59.812Z,99891.45
2018-12-21T18:58:30.594Z,99885.81
2018-12-21T19:01:01.799Z,99877.49
2018-12-21T19:03:33.135Z,99885.93
2018-12-21T19:06:04.519Z,99885.80
2018-12-21T19:08:35.529Z,99881.11
2018-12-21T19:11:06.568Z,99884.04
2018-12-21T19:13:37.486Z,99884.76
2018-12-21T19:16:08.440Z,99883.63
2018-12-21T19:18:39.368Z,99890.67
2018-12-21T19:21:10.903Z,99883.09
2018-12-21T19:23:41.875Z,99881.00
2018-12-21T19:26:13.185Z,99882.83
2018-12-21T19:28:44.151Z,99884.68
2018-12-21T19:31:16.052Z,99884.22
2018-12-21T19:33:47.952Z,99878.56
2018-12-21T19:36:19.339Z,99878.61
2018-12-21T19:38:50.333Z,99867.80
2018-12-21T19:41:21.698Z,99862.59
2018-12-21T19:43:53.009Z,99863.53
2018-12-21T19:46:25.461Z,99858.16
2018-12-21T19:48:57.047Z,99861.58
2018-12-21T19:51:29.161Z,99860.88
2018-12-21T19:54:00.178Z,99860.52
2018-12-21T19:57:35.640Z,99860.88
2018-12-21T20:00:08.712Z,99863.28
2018-12-21T20:02:40.851Z,99861.83
2018-12-21T20:05:12.682Z,99861.09
2018-12-21T20:07:43.702Z,99857.83
2018-12-21T20:10:15.592Z,99860.27
2018-12-21T20:12:47.024Z,99855.30
2018-12-21T20:15:17.982Z,99859.98
2018-12-21T20:17:49.161Z,99859.45
2018-12-21T20:20:20.778Z,99863.27
2018-12-21T20:22:52.927Z,99854.87
2018-12-21T20:25:24.096Z,99852.66
2018-12-21T20:27:55.630Z,99848.43
2018-12-21T20:30:27.752Z,99851.70
2018-12-21T20:32:58.974Z,99860.16
2018-12-21T20:35:31.232Z,99850.40
2018-12-21T20:38:03.009Z,99850.32
2018-12-21T20:40:33.961Z,99843.03
2018-12-21T20:43:05.468Z,99849.09
2018-12-21T20:45:37.720Z,99847.81
2018-12-21T20:48:08.685Z,99844.80
2018-12-21T20:50:39.976Z,99848.09
2018-12-21T20:53:11.081Z,99844.52
2018-12-21T20:55:42.678Z,99843.13
2018-12-21T20:58:34.503Z,99847.90
2018-12-21T21:01:07.159Z,99846.73
2018-12-21T21:03:39.214Z,99846.96
2018-12-21T21:06:11.603Z,99845.88
2018-12-21T21:08:43.065Z,99848.58
2018-12-21T21:11:14.334Z,99840.36
2018-12-21T21:13:45.951Z,99850.97
2018-12-21T21:16:17.565Z,99851.64
2018-12-21T21:18:48.441Z,99849.88
2018-12-21T21:21:19.583Z,99854.34
2018-12-21T21:23:51.169Z,99852.50
2018-12-21T21:26:22.258Z,99848.50
2018-12-21T21:28:53.145Z,99853.04
2018-12-21T21:31:25.026Z,99848.90
2018-12-21T21:33:56.319Z,99853.94
2018-12-21T21:36:27.263Z,99856.86
2018-12-21T21:38:58.632Z,99860.17
2018-12-21T21:41:29.646Z,99856.08
2018-12-21T21:44:00.774Z,99866.84
2018-12-21T21:46:32.430Z,99864.45
2018-12-21T21:49:07.374Z,99872.45
2018-12-21T21:51:38.628Z,99871.28
2018-12-21T21:54:10.258Z,99855.63
2018-12-21T21:56:41.853Z,99854.78
2018-12-21T21:59:13.293Z,99858.88
2018-12-21T22:01:44.595Z,99851.72
2018-12-21T22:04:16.749Z,99857.16
2018-12-21T22:06:48.845Z,99857.77
2018-12-21T22:09:19.499Z,99855.83
2018-12-21T22:11:51.140Z,99863.42
2018-12-21T22:14:22.134Z,99869.70
2018-12-21T22:16:53.178Z,99869.26
2018-12-21T22:19:24.302Z,99863.67
2018-12-21T22:21:55.293Z,99860.58
2018-12-21T22:24:26.447Z,99863.95
2018-12-21T22:26:57.690Z,99863.67
2018-12-21T22:29:29.045Z,99862.19
2018-12-21T22:32:01.100Z,99861.05
2018-12-21T22:34:31.864Z,99853.52
2018-12-21T22:37:03.023Z,99853.97
2018-12-21T22:39:34.106Z,99845.16
2018-12-21T22:42:05.000Z,99845.23
2018-12-21T22:44:36.856Z,99842.72
2018-12-21T22:47:07.811Z,99847.41
2018-12-21T22:49:39.041Z,99855.36
2018-12-21T22:52:10.412Z,99859.51
2018-12-21T22:54:41.210Z,99852.62
2018-12-21T22:57:12.114Z,99843.06
2018-12-21T22:59:43.006Z,99844.05
2018-12-21T23:02:13.949Z,99834.92
2018-12-21T23:04:44.809Z,99818.97
2018-12-21T23:07:15.804Z,99810.05
2018-12-21T23:09:46.990Z,99804.59
2018-12-21T23:12:18.655Z,99801.84
2018-12-21T23:14:49.522Z,99797.05
2018-12-21T23:17:21.972Z,99796.42
2018-12-21T23:19:52.920Z,99804.64
2018-12-21T23:22:23.906Z,99812.40
2018-12-21T23:24:54.775Z,99810.78
2018-12-21T23:27:25.895Z,99808.25
2018-12-21T23:29:56.712Z,99805.28
2018-12-21T23:32:27.617Z,99797.05
2018-12-21T23:34:58.396Z,99798.76
2018-12-21T23:37:29.160Z,99796.73
2018-12-21T23:40:00.276Z,99784.55
2018-12-21T23:42:31.106Z,99786.23
2018-12-21T23:45:02.471Z,99785.10
2018-12-21T23:47:33.411Z,99780.34
2018-12-21T23:50:05.419Z,99782.58
2018-12-21T23:52:36.416Z,99779.25
2018-12-21T23:55:07.925Z,99782.80
2018-12-21T23:57:38.986Z,99777.27
